»·PEaware :: N350TN KAVX-KBFL

N350TN :: KAVX-KBFL

FLIGHT INFORMATION

Flight Status: Arrived
Operator: Privately registered:
United States
More flights under this callsign
Pilot: David W. (17415)
Aircraft: PIPER PA-31/31P NAVAJO CHIEFTAIN
(PA31)
More flights by this aircraft type
Origin: KAVX Catalina
United States
Destination: KBFL Meadows
United States
More flights between these airports :: More routes between these airports
Route: +SXC V27 WEEZL VTU REYES
File this flight plan on PilotEdge
Remarks:
Altitude:
(Current/Filed)
8,000ft
Speed:
(Current/Filed)
165kts
Departed: 01-Dec-17 07:39 PM
Arrived: 01-Dec-17 08:28 PM
Distance/Time
Traveled:
125nm/0:49
Distance/Time
To Go:
Arrived

Flight Plot

Page will automatically refresh every two minutes.

Flight plan parsing failed; only flown route is shown


Map Options




Map Legend


Flown Route
Filed Route
Departure Airport
Arrival Airport
Navaid (VOR, NDB)
Fix

Horizontal Profiles

Position Reports

Time Latitude Longitude Heading Altitude Ground
Speed
01-Dec-17 19:26 33.403899 -118.415235 145 1606ft 0kts
01-Dec-17 19:27 33.403899 -118.415235 145 1606ft 0kts
01-Dec-17 19:28 33.403899 -118.415234 145 1606ft 0kts
01-Dec-17 19:29 33.403898 -118.415234 145 1606ft 0kts
01-Dec-17 19:30 33.403898 -118.415233 145 1606ft 0kts
01-Dec-17 19:31 33.403897 -118.415233 145 1606ft 0kts
01-Dec-17 19:32 33.403897 -118.415233 145 1606ft 0kts
01-Dec-17 19:33 33.403897 -118.415233 145 1606ft 0kts
01-Dec-17 19:34 33.403896 -118.415232 145 1606ft 0kts
01-Dec-17 19:35 33.403895 -118.415231 145 1606ft 0kts
01-Dec-17 19:36 33.403893 -118.415230 145 1606ft 0kts
01-Dec-17 19:37 33.403892 -118.415229 145 1606ft 0kts
01-Dec-17 19:38 33.404634 -118.415651 240 1606ft 11kts
01-Dec-17 19:39 33.403424 -118.417702 222 1606ft 0kts
01-Dec-17 19:40 33.402281 -118.419691 239 1606ft 0kts
01-Dec-17 19:41 33.402273 -118.419720 260 1606ft 0kts
01-Dec-17 19:42 33.402273 -118.419721 260 1606ft 0kts
01-Dec-17 19:43 33.402574 -118.419867 37 1606ft 7kts
01-Dec-17 19:44 33.410969 -118.400535 92 2000ft 118kts
01-Dec-17 19:45 33.386426 -118.403039 231 3085ft 153kts
01-Dec-17 19:46 33.373048 -118.442954 309 4415ft 142kts
01-Dec-17 19:47 33.408228 -118.473453 327 5400ft 160kts
01-Dec-17 19:48 33.446504 -118.508989 314 5772ft 181kts
01-Dec-17 19:49 33.473117 -118.558472 305 6481ft 178kts
01-Dec-17 19:50 33.505506 -118.605730 307 7187ft 187kts
01-Dec-17 19:51 33.539086 -118.653725 307 7887ft 188kts
01-Dec-17 19:52 33.571880 -118.700642 308 8568ft 189kts
01-Dec-17 19:53 33.605875 -118.749339 308 9269ft 191kts
01-Dec-17 19:54 33.640032 -118.798333 309 9966ft 191kts
01-Dec-17 19:55 33.674507 -118.847861 309 10005ft 192kts
01-Dec-17 19:56 33.708706 -118.897050 309 10003ft 192kts
01-Dec-17 19:57 33.742868 -118.946268 309 10000ft 191kts
01-Dec-17 19:58 33.776822 -118.995254 309 9998ft 191kts
01-Dec-17 19:59 33.823249 -119.019032 354 9994ft 192kts
01-Dec-17 20:00 33.876748 -119.024521 354 9991ft 192kts
01-Dec-17 20:01 33.929772 -119.030067 354 9990ft 192kts
01-Dec-17 20:02 33.979164 -119.035233 354 9990ft 192kts
01-Dec-17 20:03 34.032659 -119.040841 353 9988ft 192kts
01-Dec-17 20:04 34.085946 -119.046439 353 9988ft 192kts
01-Dec-17 20:05 34.136187 -119.052352 350 9988ft 192kts
01-Dec-17 20:06 34.189101 -119.060920 350 9988ft 192kts
01-Dec-17 20:07 34.242069 -119.069214 350 9988ft 192kts
01-Dec-17 20:08 34.295190 -119.077494 350 9991ft 192kts
01-Dec-17 20:09 34.348104 -119.085743 350 9995ft 192kts
01-Dec-17 20:10 34.400990 -119.093997 350 10001ft 191kts
01-Dec-17 20:11 34.454042 -119.102286 350 10009ft 191kts
01-Dec-17 20:12 34.506812 -119.110540 350 10019ft 191kts
01-Dec-17 20:13 34.559489 -119.118787 350 10029ft 191kts
01-Dec-17 20:14 34.612317 -119.127069 350 10041ft 191kts
01-Dec-17 20:15 34.665040 -119.133998 2 10054ft 191kts
01-Dec-17 20:16 34.718388 -119.128504 2 10063ft 192kts
01-Dec-17 20:17 34.770067 -119.123404 2 10086ft 191kts
01-Dec-17 20:18 34.823184 -119.118184 3 10092ft 192kts
01-Dec-17 20:19 34.876566 -119.112932 2 10094ft 192kts
01-Dec-17 20:20 34.929882 -119.107672 2 10094ft 192kts
01-Dec-17 20:21 34.983285 -119.102402 2 10092ft 192kts
01-Dec-17 20:22 35.036879 -119.097098 2 10055ft 194kts
01-Dec-17 20:23 35.093685 -119.091452 3 8513ft 213kts
01-Dec-17 20:24 35.152194 -119.085643 4 6395ft 219kts
01-Dec-17 20:25 35.203179 -119.061539 47 4311ft 213kts
01-Dec-17 20:26 35.243291 -119.010526 45 2593ft 189kts
01-Dec-17 20:27 35.276375 -118.969055 45 2578ft 159kts
01-Dec-17 20:28 35.306853 -118.931115 44 2581ft 155kts
01-Dec-17 20:29 35.347039 -118.931792 300 2520ft 177kts
01-Dec-17 20:30 35.370828 -118.981865 317 2359ft 173kts
01-Dec-17 20:31 35.403522 -119.018506 315 1295ft 125kts
01-Dec-17 20:32 35.427090 -119.047959 314 578ft 120kts
01-Dec-17 20:33 35.439632 -119.062714 1 511ft 16kts
01-Dec-17 20:34 35.438892 -119.060035 135 511ft 21kts
01-Dec-17 20:35 35.433898 -119.054019 134 511ft 25kts
01-Dec-17 20:36 35.429389 -119.048549 135 511ft 14kts
01-Dec-17 20:37 35.428915 -119.045659 325 511ft 0kts

Navigation Log

Ident Type
Flight plan parsing failed, navigation log unavailable